Time;durP1;ratioP1;P1;durP2;ratioP2;P2;SDS_P1;SDS_P2;PMS_P1;PMS_P2;Temp;Humidity;BMP_temperature;BMP_pressure;BME280_temperature;BME280_humidity;BME280_pressure;Samples;Min_cycle;Max_cycle;Signal;HPM_P1;HPM_P2
2022/09/23 00:00:16;;;;;;;14.18;6.53;;;;;;;;;;4983413;28;20076;-74
2022/09/23 00:02:46;;;;;;;22.42;6.70;;;;;;;;;;4984446;28;20551;-73
2022/09/23 00:05:11;;;;;;;16.45;6.43;;;;;;;;;;4983251;28;20098;-73
2022/09/23 00:07:37;;;;;;;16.50;6.65;;;;;;;;;;4983049;28;20035;-74
2022/09/23 00:10:03;;;;;;;16.30;6.32;;;;;;;;;;4982679;28;20025;-74
2022/09/23 00:12:29;;;;;;;23.20;6.57;;;;;;;;;;4984179;28;20030;-74
2022/09/23 00:14:55;;;;;;;17.60;6.75;;;;;;;;;;4983033;28;20089;-74
2022/09/23 00:17:22;;;;;;;16.98;6.40;;;;;;;;;;4984237;28;20023;-74
2022/09/23 00:19:48;;;;;;;18.38;6.88;;;;;;;;;;4983648;28;20029;-73
2022/09/23 00:22:14;;;;;;;21.08;6.47;;;;;;;;;;4984091;28;20022;-73
2022/09/23 00:24:39;;;;;;;13.90;6.38;;;;;;;;;;4984021;28;20373;-74
2022/09/23 00:27:05;;;;;;;18.42;6.53;;;;;;;;;;4984020;28;20054;-73
2022/09/23 00:29:30;;;;;;;15.68;6.55;;;;;;;;;;4983761;28;20038;-73
2022/09/23 00:31:56;;;;;;;12.95;6.32;;;;;;;;;;4981757;28;20070;-73
2022/09/23 00:34:22;;;;;;;13.48;5.75;;;;;;;;;;4979624;28;20043;-73
2022/09/23 00:36:47;;;;;;;17.60;5.93;;;;;;;;;;4983648;28;20321;-73
2022/09/23 00:39:12;;;;;;;14.60;5.95;;;;;;;;;;4983516;28;20058;-73
2022/09/23 00:41:38;;;;;;;12.45;6.20;;;;;;;;;;4983810;28;20027;-73
2022/09/23 00:44:41;;;;;;;16.17;6.13;;;;;;;;;;4983586;28;20074;-73
2022/09/23 00:47:23;;;;;;;17.13;6.28;;;;;;;;;;4983496;28;20035;-73
2022/09/23 00:50:26;;;;;;;13.82;5.97;;;;;;;;;;4977919;28;20118;-73
2022/09/23 00:52:55;;;;;;;12.80;6.28;;;;;;;;;;4982780;28;20027;-73
2022/09/23 00:55:25;;;;;;;18.95;5.90;;;;;;;;;;4983457;28;20050;-73
2022/09/23 00:57:54;;;;;;;12.82;5.97;;;;;;;;;;4983366;28;20019;-73
2022/09/23 01:00:21;;;;;;;13.15;5.97;;;;;;;;;;4983306;28;20039;-73
2022/09/23 01:02:47;;;;;;;12.55;6.30;;;;;;;;;;4982250;28;20015;-75
2022/09/23 01:05:13;;;;;;;13.65;6.20;;;;;;;;;;4977062;28;20034;-73
2022/09/23 01:07:39;;;;;;;15.23;6.38;;;;;;;;;;4971403;28;20069;-73
2022/09/23 01:10:06;;;;;;;10.38;5.60;;;;;;;;;;4971239;28;20038;-73
2022/09/23 01:12:49;;;;;;;10.85;5.45;;;;;;;;;;4972678;28;20430;-73
2022/09/23 01:15:36;;;;;;;10.43;6.03;;;;;;;;;;4984544;28;20050;-73
2022/09/23 01:18:40;;;;;;;11.10;5.75;;;;;;;;;;4971024;28;20067;-73
2022/09/23 01:21:17;;;;;;;14.85;5.63;;;;;;;;;;4955012;28;20035;-73
2022/09/23 01:23:42;;;;;;;10.00;5.40;;;;;;;;;;4982826;28;20026;-73
2022/09/23 01:26:32;;;;;;;9.15;5.43;;;;;;;;;;4980910;28;20349;-74
2022/09/23 01:29:47;;;;;;;11.43;5.25;;;;;;;;;;4981734;28;20053;-73
2022/09/23 01:32:12;;;;;;;13.70;5.68;;;;;;;;;;4958535;28;20385;-73
2022/09/23 01:34:48;;;;;;;10.98;5.75;;;;;;;;;;4977877;28;20073;-73
2022/09/23 01:37:29;;;;;;;12.95;6.15;;;;;;;;;;4972537;28;20225;-73
2022/09/23 01:40:04;;;;;;;10.93;5.72;;;;;;;;;;4976588;28;20023;-73
2022/09/23 01:42:40;;;;;;;11.63;5.65;;;;;;;;;;4982781;28;20039;-73
2022/09/23 01:45:16;;;;;;;12.30;5.63;;;;;;;;;;4981689;28;20125;-72
2022/09/23 01:47:49;;;;;;;13.70;5.75;;;;;;;;;;4982495;28;20038;-74
2022/09/23 01:53:18;;;;;;;12.00;5.68;;;;;;;;;;4976517;28;20037;-74
2022/09/23 01:55:50;;;;;;;14.50;5.70;;;;;;;;;;4982254;28;20410;-73
2022/09/23 01:58:43;;;;;;;14.82;6.15;;;;;;;;;;4982154;28;20308;-73
2022/09/23 02:01:14;;;;;;;12.18;5.80;;;;;;;;;;4982239;28;20018;-73
2022/09/23 02:03:50;;;;;;;11.13;5.75;;;;;;;;;;4978106;28;20058;-73
2022/09/23 02:06:21;;;;;;;10.77;5.70;;;;;;;;;;4981955;28;20027;-74
2022/09/23 02:08:56;;;;;;;10.75;5.90;;;;;;;;;;4981993;28;20125;-75
2022/09/23 02:11:22;;;;;;;14.02;6.47;;;;;;;;;;4982200;28;20326;-74
2022/09/23 02:14:10;;;;;;;13.27;6.10;;;;;;;;;;4981976;28;20034;-73
2022/09/23 02:16:46;;;;;;;11.63;6.20;;;;;;;;;;4980699;28;20042;-74
2022/09/23 02:19:26;;;;;;;12.20;5.35;;;;;;;;;;4981953;28;20326;-73
2022/09/23 02:21:58;;;;;;;16.00;5.75;;;;;;;;;;4981322;28;20027;-74
2022/09/23 02:24:28;;;;;;;10.73;5.18;;;;;;;;;;4981645;28;20037;-73
2022/09/23 02:27:00;;;;;;;15.73;5.95;;;;;;;;;;4980882;28;20233;-76
2022/09/23 02:29:30;;;;;;;12.10;6.10;;;;;;;;;;4981851;28;20321;-74
2022/09/23 02:32:11;;;;;;;10.38;5.97;;;;;;;;;;4980552;28;20074;-74
2022/09/23 02:35:05;;;;;;;10.45;6.13;;;;;;;;;;4981759;28;20061;-74
2022/09/23 02:37:30;;;;;;;13.55;5.88;;;;;;;;;;4977171;28;20038;-73
2022/09/23 02:39:58;;;;;;;11.95;6.10;;;;;;;;;;4981914;28;20019;-74
2022/09/23 02:42:34;;;;;;;13.02;6.00;;;;;;;;;;4981466;28;20041;-74
2022/09/23 02:44:59;;;;;;;12.18;6.03;;;;;;;;;;4981628;28;20019;-74
2022/09/23 02:47:30;;;;;;;13.63;6.10;;;;;;;;;;4981343;28;20027;-74
2022/09/23 02:49:55;;;;;;;11.93;5.93;;;;;;;;;;4981622;28;20019;-74
2022/09/23 02:52:22;;;;;;;14.93;5.93;;;;;;;;;;4981691;28;20054;-74
2022/09/23 02:54:48;;;;;;;14.70;6.28;;;;;;;;;;4975436;28;20031;-74
2022/09/23 02:57:13;;;;;;;13.55;6.20;;;;;;;;;;4985230;28;20037;-75
2022/09/23 02:59:39;;;;;;;11.40;5.60;;;;;;;;;;4980572;28;20022;-75
2022/09/23 03:02:25;;;;;;;14.50;5.80;;;;;;;;;;4985345;28;20058;-74
2022/09/23 03:05:05;;;;;;;12.07;5.68;;;;;;;;;;4982226;28;20043;-74
2022/09/23 03:07:54;;;;;;;10.77;6.07;;;;;;;;;;4985282;28;20054;-74
2022/09/23 03:10:23;;;;;;;14.25;5.95;;;;;;;;;;4992931;28;20038;-74
2022/09/23 03:13:13;;;;;;;11.18;5.88;;;;;;;;;;4985474;28;20032;-75
2022/09/23 03:16:02;;;;;;;11.63;5.53;;;;;;;;;;4983461;28;20035;-76
2022/09/23 03:18:35;;;;;;;12.30;5.30;;;;;;;;;;4982707;28;20029;-76
2022/09/23 03:21:10;;;;;;;9.98;5.32;;;;;;;;;;4983918;28;20313;-75
2022/09/23 03:23:38;;;;;;;11.87;5.47;;;;;;;;;;4985077;28;20026;-74
2022/09/23 03:26:10;;;;;;;12.65;5.90;;;;;;;;;;4985037;28;20034;-74
2022/09/23 03:28:37;;;;;;;12.02;5.55;;;;;;;;;;4984692;28;20054;-74
2022/09/23 03:31:03;;;;;;;9.35;5.32;;;;;;;;;;4985146;28;20058;-74
2022/09/23 03:33:30;;;;;;;11.18;5.35;;;;;;;;;;4985012;28;20295;-74
2022/09/23 03:38:49;;;;;;;10.82;5.30;;;;;;;;;;4984747;28;20077;-74
2022/09/23 03:41:22;;;;;;;13.80;5.25;;;;;;;;;;4984320;28;20102;-73
2022/09/23 03:43:47;;;;;;;15.70;5.72;;;;;;;;;;4984750;28;20050;-74
2022/09/23 03:46:17;;;;;;;9.48;5.20;;;;;;;;;;4984745;28;20031;-74
2022/09/23 03:48:44;;;;;;;11.13;5.63;;;;;;;;;;4983118;28;20098;-73
2022/09/23 03:51:22;;;;;;;11.18;4.88;;;;;;;;;;4984244;28;20341;-73
2022/09/23 03:53:49;;;;;;;10.35;5.20;;;;;;;;;;4984807;28;20069;-74
2022/09/23 03:56:14;;;;;;;10.80;5.45;;;;;;;;;;4984752;28;20027;-73
2022/09/23 03:58:40;;;;;;;12.68;5.28;;;;;;;;;;4984661;28;20023;-73
2022/09/23 04:01:06;;;;;;;17.30;5.75;;;;;;;;;;4984756;28;20030;-73
2022/09/23 04:03:31;;;;;;;13.10;5.30;;;;;;;;;;4984229;28;20022;-74
2022/09/23 04:05:56;;;;;;;9.80;5.00;;;;;;;;;;4982953;28;20034;-74
2022/09/23 04:08:22;;;;;;;11.38;5.50;;;;;;;;;;4983101;28;20050;-74
2022/09/23 04:10:49;;;;;;;10.90;5.90;;;;;;;;;;4984120;28;20031;-73
2022/09/23 04:13:14;;;;;;;11.63;4.93;;;;;;;;;;4984349;28;20022;-74
2022/09/23 04:15:40;;;;;;;12.20;5.20;;;;;;;;;;4984389;28;20042;-74
2022/09/23 04:18:05;;;;;;;10.55;4.80;;;;;;;;;;4984078;28;20030;-74
2022/09/23 04:20:30;;;;;;;10.38;5.13;;;;;;;;;;4984144;28;20031;-75
2022/09/23 04:22:56;;;;;;;9.75;4.90;;;;;;;;;;4984018;28;20090;-74
2022/09/23 04:25:21;;;;;;;16.63;5.18;;;;;;;;;;4983897;28;20251;-74
2022/09/23 04:27:46;;;;;;;9.45;4.80;;;;;;;;;;4983852;28;20030;-74
2022/09/23 04:30:12;;;;;;;10.73;5.05;;;;;;;;;;4983985;28;20110;-75
2022/09/23 04:32:38;;;;;;;18.45;5.35;;;;;;;;;;4984118;28;20027;-74
2022/09/23 04:35:04;;;;;;;13.10;5.05;;;;;;;;;;4983377;28;20118;-74
2022/09/23 04:37:29;;;;;;;14.63;4.85;;;;;;;;;;4979280;28;20057;-74
2022/09/23 04:39:55;;;;;;;15.15;5.32;;;;;;;;;;4983837;28;20026;-73
2022/09/23 04:42:20;;;;;;;14.75;5.57;;;;;;;;;;4983864;28;20019;-74
2022/09/23 04:44:46;;;;;;;10.57;5.38;;;;;;;;;;4983561;28;20330;-74
2022/09/23 04:47:11;;;;;;;15.18;4.80;;;;;;;;;;4983695;28;20037;-74
2022/09/23 04:49:37;;;;;;;20.85;5.15;;;;;;;;;;4983479;28;20029;-74
2022/09/23 04:52:04;;;;;;;25.08;5.00;;;;;;;;;;4983562;28;20052;-74
2022/09/23 04:54:30;;;;;;;25.83;5.32;;;;;;;;;;4983200;28;20042;-74
2022/09/23 04:56:55;;;;;;;36.42;5.72;;;;;;;;;;4983406;28;20134;-74
2022/09/23 04:59:20;;;;;;;19.35;5.50;;;;;;;;;;4983176;28;20026;-74
2022/09/23 05:01:46;;;;;;;23.83;5.10;;;;;;;;;;4983660;28;20030;-74
2022/09/23 05:04:12;;;;;;;16.83;5.97;;;;;;;;;;4983181;28;20018;-74
2022/09/23 05:06:38;;;;;;;11.75;5.28;;;;;;;;;;4983151;28;20033;-74
2022/09/23 05:09:06;;;;;;;15.13;4.53;;;;;;;;;;4983201;28;20054;-74
2022/09/23 05:11:33;;;;;;;20.95;5.07;;;;;;;;;;4981692;28;20106;-74
2022/09/23 05:13:58;;;;;;;21.88;5.28;;;;;;;;;;4983081;28;20046;-74
2022/09/23 05:16:24;;;;;;;17.90;5.35;;;;;;;;;;4982899;28;20208;-75
2022/09/23 05:18:51;;;;;;;13.35;4.90;;;;;;;;;;4981816;28;20251;-74
2022/09/23 05:21:19;;;;;;;11.25;4.78;;;;;;;;;;4981434;28;20234;-74
2022/09/23 05:23:53;;;;;;;8.90;4.50;;;;;;;;;;4982578;28;20382;-74
2022/09/23 05:26:20;;;;;;;9.00;4.95;;;;;;;;;;4983268;28;20065;-74
2022/09/23 05:28:46;;;;;;;12.93;5.13;;;;;;;;;;4978878;28;20022;-75
2022/09/23 05:31:16;;;;;;;10.23;4.97;;;;;;;;;;4975513;28;20360;-73
2022/09/23 05:33:47;;;;;;;11.07;5.05;;;;;;;;;;4981140;28;20027;-74
2022/09/23 05:36:14;;;;;;;12.68;5.03;;;;;;;;;;4982173;28;20048;-74
2022/09/23 05:38:39;;;;;;;16.88;4.70;;;;;;;;;;4982514;28;20023;-73
2022/09/23 05:41:10;;;;;;;24.55;5.35;;;;;;;;;;4982778;28;20051;-73
2022/09/23 05:43:36;;;;;;;18.27;5.22;;;;;;;;;;4982202;28;20034;-74
2022/09/23 05:46:10;;;;;;;13.15;5.10;;;;;;;;;;4982718;28;20144;-74
2022/09/23 05:48:37;;;;;;;9.73;4.85;;;;;;;;;;4982320;28;20023;-74
2022/09/23 05:51:07;;;;;;;23.27;5.35;;;;;;;;;;4980704;28;20215;-73
2022/09/23 05:53:33;;;;;;;15.25;5.10;;;;;;;;;;4981562;28;20038;-74
2022/09/23 05:55:59;;;;;;;13.65;4.93;;;;;;;;;;4981788;28;20031;-73
2022/09/23 05:58:26;;;;;;;14.43;5.72;;;;;;;;;;4981946;28;20022;-73
2022/09/23 06:00:55;;;;;;;13.20;5.40;;;;;;;;;;4981928;28;20023;-74
2022/09/23 06:03:21;;;;;;;14.27;5.15;;;;;;;;;;4982035;28;20033;-74
2022/09/23 06:05:47;;;;;;;16.05;5.00;;;;;;;;;;4980265;28;20030;-75
2022/09/23 06:08:13;;;;;;;15.13;5.05;;;;;;;;;;4980131;28;20089;-75
2022/09/23 06:10:40;;;;;;;10.15;5.00;;;;;;;;;;4981880;28;20031;-74
2022/09/23 06:13:07;;;;;;;16.27;5.00;;;;;;;;;;4982132;28;20098;-74
2022/09/23 06:15:32;;;;;;;14.75;5.50;;;;;;;;;;4979831;28;20023;-75
2022/09/23 06:17:58;;;;;;;17.65;5.80;;;;;;;;;;4981835;28;20337;-73
2022/09/23 06:20:24;;;;;;;16.02;5.95;;;;;;;;;;4981299;28;20034;-74
2022/09/23 06:22:49;;;;;;;19.70;5.97;;;;;;;;;;4980992;28;20038;-75
2022/09/23 06:25:15;;;;;;;16.20;6.38;;;;;;;;;;4981694;28;20041;-73
2022/09/23 06:27:40;;;;;;;18.70;6.13;;;;;;;;;;4980278;28;20066;-74
2022/09/23 06:30:06;;;;;;;15.45;5.93;;;;;;;;;;4981191;28;20027;-74
2022/09/23 06:32:32;;;;;;;16.70;5.80;;;;;;;;;;4981500;28;20045;-74
2022/09/23 06:34:57;;;;;;;14.32;5.63;;;;;;;;;;4981008;28;20030;-76
2022/09/23 06:37:23;;;;;;;10.20;5.43;;;;;;;;;;4981829;28;20022;-77
2022/09/23 06:39:49;;;;;;;15.68;5.53;;;;;;;;;;4981351;28;20031;-74
2022/09/23 06:42:15;;;;;;;13.02;5.45;;;;;;;;;;4981253;28;20026;-75
2022/09/23 06:44:41;;;;;;;14.05;5.53;;;;;;;;;;4981598;28;20014;-77
2022/09/23 06:47:06;;;;;;;12.95;5.43;;;;;;;;;;4981469;28;20026;-76
2022/09/23 06:49:32;;;;;;;12.75;4.88;;;;;;;;;;4981366;28;20046;-75
2022/09/23 06:51:58;;;;;;;13.05;5.38;;;;;;;;;;4977506;28;20027;-74
2022/09/23 06:54:26;;;;;;;11.45;5.68;;;;;;;;;;4981274;28;20063;-76
2022/09/23 06:56:52;;;;;;;13.43;5.40;;;;;;;;;;4981173;28;20033;-76
2022/09/23 06:59:17;;;;;;;17.95;6.03;;;;;;;;;;4981335;28;20050;-74
2022/09/23 07:01:44;;;;;;;13.90;5.80;;;;;;;;;;4980695;28;20223;-79
2022/09/23 07:04:09;;;;;;;11.73;5.30;;;;;;;;;;4981399;28;20031;-74
2022/09/23 07:06:36;;;;;;;13.45;5.10;;;;;;;;;;4981301;28;20069;-75
2022/09/23 07:09:02;;;;;;;14.07;5.13;;;;;;;;;;4981251;28;20386;-74
2022/09/23 07:11:28;;;;;;;14.65;5.18;;;;;;;;;;4979817;28;20054;-73
2022/09/23 07:13:53;;;;;;;14.35;5.78;;;;;;;;;;4980201;28;20015;-74
2022/09/23 07:16:19;;;;;;;18.95;5.57;;;;;;;;;;4979632;28;20034;-75
2022/09/23 07:18:45;;;;;;;12.88;6.10;;;;;;;;;;4981306;28;20074;-75
2022/09/23 07:21:14;;;;;;;12.60;5.60;;;;;;;;;;4980742;28;20031;-74
2022/09/23 07:23:40;;;;;;;13.13;6.45;;;;;;;;;;4980385;28;20121;-75
2022/09/23 07:26:06;;;;;;;21.50;5.80;;;;;;;;;;4981264;28;20014;-75
2022/09/23 07:28:32;;;;;;;16.33;6.22;;;;;;;;;;4978370;28;20322;-75
2022/09/23 07:31:03;;;;;;;27.63;6.78;;;;;;;;;;4980102;28;20383;-76
2022/09/23 07:33:30;;;;;;;18.95;6.03;;;;;;;;;;4979548;28;20026;-74
2022/09/23 07:35:56;;;;;;;13.23;7.03;;;;;;;;;;4980527;28;20073;-76
2022/09/23 07:38:24;;;;;;;13.95;6.03;;;;;;;;;;4980441;28;20266;-76
2022/09/23 07:40:50;;;;;;;13.98;6.15;;;;;;;;;;4980850;28;20192;-79
2022/09/23 07:43:17;;;;;;;10.57;5.85;;;;;;;;;;4983294;28;20035;-77
2022/09/23 07:45:44;;;;;;;15.02;5.80;;;;;;;;;;4982501;28;20051;-75
2022/09/23 07:48:09;;;;;;;12.45;6.20;;;;;;;;;;4984154;28;20242;-75
2022/09/23 07:50:38;;;;;;;13.45;6.28;;;;;;;;;;4984281;28;20027;-76
2022/09/23 07:53:04;;;;;;;19.13;6.15;;;;;;;;;;4983783;28;20226;-76
2022/09/23 07:55:30;;;;;;;14.63;6.47;;;;;;;;;;4983913;28;20081;-77
2022/09/23 07:57:55;;;;;;;11.90;6.10;;;;;;;;;;4984420;28;20023;-75
2022/09/23 08:00:20;;;;;;;17.85;5.90;;;;;;;;;;4984319;28;20018;-75
2022/09/23 08:02:46;;;;;;;12.60;6.30;;;;;;;;;;4984151;28;20022;-75
2022/09/23 08:05:11;;;;;;;17.45;5.80;;;;;;;;;;4983277;28;20094;-75
2022/09/23 08:07:36;;;;;;;15.25;6.50;;;;;;;;;;4983672;28;20042;-81
2022/09/23 08:10:02;;;;;;;18.00;6.60;;;;;;;;;;4983907;28;20026;-74
2022/09/23 08:12:28;;;;;;;13.70;6.20;;;;;;;;;;4983944;28;20093;-75
2022/09/23 08:14:53;;;;;;;13.90;6.35;;;;;;;;;;4983642;28;20373;-75
2022/09/23 08:17:19;;;;;;;17.65;6.38;;;;;;;;;;4983935;28;20026;-75
2022/09/23 08:19:44;;;;;;;15.88;6.57;;;;;;;;;;4983814;28;20055;-76
2022/09/23 08:22:11;;;;;;;20.95;6.60;;;;;;;;;;4983992;28;20069;-75
2022/09/23 08:24:36;;;;;;;13.77;6.13;;;;;;;;;;4983971;28;20022;-75
2022/09/23 08:27:01;;;;;;;18.15;5.88;;;;;;;;;;4983460;28;20157;-76
2022/09/23 08:29:27;;;;;;;21.70;6.95;;;;;;;;;;4983523;28;20037;-76
2022/09/23 08:31:53;;;;;;;18.35;7.13;;;;;;;;;;4983913;28;20037;-75
2022/09/23 08:34:19;;;;;;;18.98;7.47;;;;;;;;;;4983870;28;20218;-77
2022/09/23 08:36:45;;;;;;;24.02;6.60;;;;;;;;;;4983758;28;20326;-75
2022/09/23 08:39:15;;;;;;;17.05;7.03;;;;;;;;;;4983249;28;20035;-76
2022/09/23 08:41:53;;;;;;;24.02;6.45;;;;;;;;;;4982302;28;20023;-76
2022/09/23 08:44:33;;;;;;;19.73;6.70;;;;;;;;;;4996867;28;20077;-78
2022/09/23 08:46:58;;;;;;;16.40;6.75;;;;;;;;;;4977996;28;20103;-75
2022/09/23 08:49:34;;;;;;;15.23;6.20;;;;;;;;;;4982690;28;20304;-77
2022/09/23 08:52:07;;;;;;;18.10;6.63;;;;;;;;;;4978113;28;20057;-79
2022/09/23 08:54:33;;;;;;;14.45;5.93;;;;;;;;;;4976903;28;20207;-76
2022/09/23 08:57:01;;;;;;;21.13;6.32;;;;;;;;;;4983524;28;20117;-76
2022/09/23 08:59:43;;;;;;;29.20;6.70;;;;;;;;;;4983124;28;20034;-77
2022/09/23 09:02:17;;;;;;;24.38;6.63;;;;;;;;;;4983245;28;20037;-75
2022/09/23 09:04:46;;;;;;;17.10;6.60;;;;;;;;;;4982854;28;20199;-77
2022/09/23 09:07:14;;;;;;;13.95;6.40;;;;;;;;;;4982985;28;20070;-76
2022/09/23 09:10:09;;;;;;;25.67;6.35;;;;;;;;;;4982478;28;20031;-76
2022/09/23 09:12:51;;;;;;;13.63;6.05;;;;;;;;;;4969296;28;20038;-77
2022/09/23 09:15:27;;;;;;;15.85;6.20;;;;;;;;;;4982333;28;20334;-75
2022/09/23 09:18:03;;;;;;;24.02;7.00;;;;;;;;;;4982774;28;20334;-75
2022/09/23 09:20:43;;;;;;;26.70;7.65;;;;;;;;;;4981307;28;20097;-75
2022/09/23 09:23:25;;;;;;;40.10;10.00;;;;;;;;;;4970865;28;20039;-76
2022/09/23 09:25:53;;;;;;;15.90;6.50;;;;;;;;;;4978855;28;20086;-78
2022/09/23 09:28:37;;;;;;;23.45;6.82;;;;;;;;;;4978672;28;20058;-76
2022/09/23 09:31:22;;;;;;;24.60;7.53;;;;;;;;;;4977375;28;20223;-75
2022/09/23 09:34:21;;;;;;;24.92;6.28;;;;;;;;;;4982162;28;20291;-76
2022/09/23 09:37:22;;;;;;;18.85;6.10;;;;;;;;;;4980382;28;20029;-78
2022/09/23 09:39:47;;;;;;;20.55;6.10;;;;;;;;;;4976720;28;20030;-76
2022/09/23 09:42:29;;;;;;;18.98;5.90;;;;;;;;;;4982475;28;20295;-79
2022/09/23 09:45:00;;;;;;;18.33;5.82;;;;;;;;;;4981482;28;20026;-78
2022/09/23 09:47:47;;;;;;;15.40;5.55;;;;;;;;;;4982527;28;20069;-81
2022/09/23 09:50:20;;;;;;;18.08;5.88;;;;;;;;;;4980532;28;20106;-77
2022/09/23 09:52:47;;;;;;;14.90;5.45;;;;;;;;;;4982335;28;20044;-75
2022/09/23 09:55:12;;;;;;;17.00;5.95;;;;;;;;;;4981619;28;20215;-76
2022/09/23 09:57:43;;;;;;;19.65;5.75;;;;;;;;;;4982207;28;20381;-80
2022/09/23 10:00:34;;;;;;;14.35;5.60;;;;;;;;;;4976883;28;20034;-76
2022/09/23 10:03:13;;;;;;;15.30;5.35;;;;;;;;;;4981745;28;20019;-76
2022/09/23 10:05:44;;;;;;;14.05;5.22;;;;;;;;;;4979924;28;20311;-76
2022/09/23 10:08:25;;;;;;;13.50;5.90;;;;;;;;;;4981217;28;20066;-76
2022/09/23 10:11:03;;;;;;;18.95;6.00;;;;;;;;;;4976152;28;20211;-75
2022/09/23 10:13:29;;;;;;;16.35;6.15;;;;;;;;;;4981867;28;20301;-76
2022/09/23 10:15:57;;;;;;;21.52;6.13;;;;;;;;;;4981127;28;20058;-76
2022/09/23 10:18:29;;;;;;;18.50;5.95;;;;;;;;;;4981721;28;20057;-75
2022/09/23 10:21:20;;;;;;;14.07;5.43;;;;;;;;;;4981646;28;20050;-76
2022/09/23 10:23:51;;;;;;;15.05;5.75;;;;;;;;;;4981348;28;20030;-76
2022/09/23 10:26:24;;;;;;;13.35;5.50;;;;;;;;;;4981619;28;20022;-76
2022/09/23 10:28:52;;;;;;;17.25;4.85;;;;;;;;;;4980582;28;20015;-76
2022/09/23 10:31:34;;;;;;;16.60;5.18;;;;;;;;;;4976077;28;20027;-77
2022/09/23 10:34:23;;;;;;;14.95;4.82;;;;;;;;;;4979520;28;20061;-76
2022/09/23 10:37:06;;;;;;;15.82;4.90;;;;;;;;;;4980965;28;20034;-76
2022/09/23 10:48:56;;;;;;;13.55;4.20;;;;;;;;;;4980703;28;20045;-78
2022/09/23 10:51:24;;;;;;;13.65;4.40;;;;;;;;;;4980078;28;20030;-77
2022/09/23 10:54:21;;;;;;;11.27;4.10;;;;;;;;;;4980623;28;20050;-78
2022/09/23 11:00:07;;;;;;;7.35;3.70;;;;;;;;;;4956599;28;20223;-79
2022/09/23 11:02:33;;;;;;;12.20;4.18;;;;;;;;;;4974504;28;20026;-77
2022/09/23 11:05:06;;;;;;;11.57;3.75;;;;;;;;;;4977912;28;20270;-78
2022/09/23 11:07:57;;;;;;;10.02;3.70;;;;;;;;;;4981048;28;20073;-79
2022/09/23 11:10:34;;;;;;;10.90;3.38;;;;;;;;;;4979063;28;20039;-76
2022/09/23 11:13:41;;;;;;;14.35;3.50;;;;;;;;;;4981480;28;20014;-79
2022/09/23 11:16:18;;;;;;;9.98;3.47;;;;;;;;;;4978915;28;20326;-80
2022/09/23 11:19:08;;;;;;;12.80;3.97;;;;;;;;;;4984291;28;20030;-79
2022/09/23 11:21:39;;;;;;;10.43;3.30;;;;;;;;;;4981362;28;20035;-77
2022/09/23 11:24:30;;;;;;;17.02;3.55;;;;;;;;;;4983157;28;20098;-80
2022/09/23 11:27:10;;;;;;;10.93;3.28;;;;;;;;;;4980925;28;20060;-80
2022/09/23 11:29:52;;;;;;;10.25;2.85;;;;;;;;;;4984567;28;20098;-77
2022/09/23 11:32:39;;;;;;;4.65;1.77;;;;;;;;;;4982993;28;20326;-77
2022/09/23 11:35:30;;;;;;;2.90;1.60;;;;;;;;;;4983599;28;20046;-80
2022/09/23 11:38:14;;;;;;;3.00;1.40;;;;;;;;;;4983248;28;20053;-76
2022/09/23 11:40:42;;;;;;;4.47;2.00;;;;;;;;;;4981784;28;20341;-77
2022/09/23 11:43:22;;;;;;;5.15;2.10;;;;;;;;;;4983892;28;20054;-78
2022/09/23 11:46:18;;;;;;;4.68;2.30;;;;;;;;;;4983899;28;20033;-84
2022/09/23 11:48:53;;;;;;;9.18;2.50;;;;;;;;;;4982454;28;20231;-80
2022/09/23 11:51:34;;;;;;;6.30;2.60;;;;;;;;;;4982996;28;20231;-83
2022/09/23 11:54:18;;;;;;;6.60;3.00;;;;;;;;;;4981947;28;20031;-81
2022/09/23 11:56:49;;;;;;;4.40;2.45;;;;;;;;;;4983156;28;20241;-79
2022/09/23 11:59:30;;;;;;;6.45;2.50;;;;;;;;;;4983562;28;20033;-80
2022/09/23 12:02:34;;;;;;;9.70;2.58;;;;;;;;;;4979617;28;20038;-77
2022/09/23 12:05:07;;;;;;;8.85;2.47;;;;;;;;;;4980939;28;20027;-81
2022/09/23 12:07:56;;;;;;;22.60;3.72;;;;;;;;;;4982929;28;20390;-80
2022/09/23 12:10:30;;;;;;;6.63;2.33;;;;;;;;;;4982566;28;20218;-78
2022/09/23 12:13:01;;;;;;;6.20;2.28;;;;;;;;;;4979799;28;20018;-80
2022/09/23 12:16:02;;;;;;;9.82;2.47;;;;;;;;;;4983278;28;20030;-77
2022/09/23 12:18:55;;;;;;;33.22;3.95;;;;;;;;;;4983210;28;20053;-79
2022/09/23 12:21:47;;;;;;;7.82;2.30;;;;;;;;;;4984304;28;20022;-78
2022/09/23 12:24:24;;;;;;;6.95;2.08;;;;;;;;;;4981293;28;20039;-81
2022/09/23 12:26:56;;;;;;;6.93;2.22;;;;;;;;;;4983951;28;20143;-78
2022/09/23 12:29:26;;;;;;;7.45;2.10;;;;;;;;;;4981998;28;20103;-80
2022/09/23 12:31:51;;;;;;;9.70;2.50;;;;;;;;;;4983520;28;20042;-79
2022/09/23 12:34:20;;;;;;;10.05;2.70;;;;;;;;;;4983588;28;20019;-77
2022/09/23 12:36:46;;;;;;;6.43;2.63;;;;;;;;;;4980325;28;20090;-77
2022/09/23 12:39:16;;;;;;;10.73;2.50;;;;;;;;;;4983505;28;20027;-78
2022/09/23 12:41:48;;;;;;;9.98;2.60;;;;;;;;;;4983428;28;20102;-79
2022/09/23 12:44:35;;;;;;;12.25;2.65;;;;;;;;;;4983629;28;20154;-78
2022/09/23 12:47:26;;;;;;;9.30;2.38;;;;;;;;;;4982637;28;20023;-79
2022/09/23 12:49:53;;;;;;;4.53;2.13;;;;;;;;;;4983127;28;20023;-77
2022/09/23 12:52:18;;;;;;;6.90;2.13;;;;;;;;;;4982905;28;20046;-77
2022/09/23 12:54:45;;;;;;;9.57;2.20;;;;;;;;;;4981571;28;20105;-78
2022/09/23 12:57:30;;;;;;;8.13;2.35;;;;;;;;;;4982870;28;20037;-77
2022/09/23 13:00:14;;;;;;;5.55;2.08;;;;;;;;;;4983561;28;20031;-79
2022/09/23 13:08:37;;;;;;;4.22;2.00;;;;;;;;;;4979770;28;20106;-77
2022/09/23 13:11:07;;;;;;;7.20;2.15;;;;;;;;;;4981261;28;20267;-82
2022/09/23 13:13:44;;;;;;;8.23;1.90;;;;;;;;;;4982386;28;20030;-79
2022/09/23 13:16:23;;;;;;;7.20;2.22;;;;;;;;;;4982874;28;20035;-81
2022/09/23 13:18:53;;;;;;;52.05;4.63;;;;;;;;;;4982755;28;20018;-79
2022/09/23 13:21:41;;;;;;;11.68;1.80;;;;;;;;;;4982688;28;20027;-79
2022/09/23 13:24:13;;;;;;;5.20;1.80;;;;;;;;;;4978865;28;20097;-77
2022/09/23 13:27:01;;;;;;;6.00;1.90;;;;;;;;;;4980155;28;20071;-76
2022/09/23 13:29:42;;;;;;;5.32;3.08;;;;;;;;;;4973008;28;20035;-79
2022/09/23 13:32:13;;;;;;;3.67;2.00;;;;;;;;;;4980459;28;20374;-79
2022/09/23 13:34:43;;;;;;;5.60;1.70;;;;;;;;;;4982289;28;20125;-78
2022/09/23 13:37:42;;;;;;;5.57;1.60;;;;;;;;;;4982757;28;20023;-77
2022/09/23 13:40:26;;;;;;;3.65;1.80;;;;;;;;;;4974275;28;20043;-78
2022/09/23 13:42:57;;;;;;;6.13;1.60;;;;;;;;;;4977891;28;20337;-80
2022/09/23 13:45:24;;;;;;;3.97;1.50;;;;;;;;;;4982067;28;20031;-79
2022/09/23 13:47:51;;;;;;;5.47;1.63;;;;;;;;;;4981729;28;20368;-80
2022/09/23 13:50:20;;;;;;;5.75;1.60;;;;;;;;;;4981957;28;20223;-79
2022/09/23 13:52:51;;;;;;;6.18;1.83;;;;;;;;;;4982044;28;20042;-77
2022/09/23 13:55:32;;;;;;;3.17;1.60;;;;;;;;;;4978287;28;20018;-76
2022/09/23 13:57:59;;;;;;;3.60;1.63;;;;;;;;;;4979940;28;20069;-76
2022/09/23 14:00:25;;;;;;;3.33;1.50;;;;;;;;;;4981888;28;20038;-76
2022/09/23 14:02:54;;;;;;;5.35;1.60;;;;;;;;;;4982023;28;20280;-77
2022/09/23 14:05:23;;;;;;;6.03;1.40;;;;;;;;;;4978543;28;20026;-77
2022/09/23 14:07:53;;;;;;;3.10;1.45;;;;;;;;;;4979942;28;20296;-77
2022/09/23 14:10:21;;;;;;;5.53;1.73;;;;;;;;;;4980261;28;20027;-76
2022/09/23 14:12:48;;;;;;;3.83;1.70;;;;;;;;;;4981877;28;20081;-77
2022/09/23 14:15:16;;;;;;;3.70;1.63;;;;;;;;;;4981652;28;20097;-77
2022/09/23 14:17:50;;;;;;;4.78;2.10;;;;;;;;;;4977321;28;20026;-78
2022/09/23 14:20:16;;;;;;;3.03;1.77;;;;;;;;;;4981543;28;20322;-77
2022/09/23 14:22:42;;;;;;;3.47;1.40;;;;;;;;;;4981912;28;20061;-77
2022/09/23 14:25:13;;;;;;;5.47;1.63;;;;;;;;;;4981667;28;20022;-77
2022/09/23 14:27:40;;;;;;;4.93;1.70;;;;;;;;;;4980971;28;20031;-77
2022/09/23 14:30:12;;;;;;;6.03;1.75;;;;;;;;;;4981520;28;20033;-77
2022/09/23 14:32:38;;;;;;;6.57;1.90;;;;;;;;;;4981249;28;20026;-78
2022/09/23 14:35:16;;;;;;;4.70;1.85;;;;;;;;;;4980807;28;20038;-78
2022/09/23 14:40:33;;;;;;;4.38;1.63;;;;;;;;;;4977048;28;20042;-76
2022/09/23 14:43:05;;;;;;;7.63;1.70;;;;;;;;;;4980307;28;20101;-77
2022/09/23 14:45:33;;;;;;;5.47;1.45;;;;;;;;;;4979888;28;20353;-76
2022/09/23 14:48:04;;;;;;;4.43;1.55;;;;;;;;;;4975782;28;20242;-76
2022/09/23 14:50:45;;;;;;;2.78;1.40;;;;;;;;;;4980749;28;20086;-77
2022/09/23 14:53:23;;;;;;;3.53;1.60;;;;;;;;;;4982080;28;20061;-76
2022/09/23 14:56:11;;;;;;;4.55;1.63;;;;;;;;;;4984712;28;20039;-77
2022/09/23 14:58:54;;;;;;;4.20;1.70;;;;;;;;;;4984259;28;20046;-78
2022/09/23 15:01:29;;;;;;;4.43;1.60;;;;;;;;;;4986635;28;20150;-76
2022/09/23 15:03:56;;;;;;;4.30;1.80;;;;;;;;;;4987025;28;20046;-82
2022/09/23 15:06:23;;;;;;;5.80;1.83;;;;;;;;;;4987731;28;20029;-80
2022/09/23 15:08:54;;;;;;;4.85;1.98;;;;;;;;;;4987754;28;20035;-80
2022/09/23 15:11:24;;;;;;;4.82;2.15;;;;;;;;;;4987391;28;20373;-80
2022/09/23 15:13:51;;;;;;;3.47;1.80;;;;;;;;;;4987414;28;20061;-79
2022/09/23 15:16:25;;;;;;;5.70;1.80;;;;;;;;;;4987477;28;20027;-82
2022/09/23 15:18:54;;;;;;;6.05;2.08;;;;;;;;;;4981627;28;20081;-80
2022/09/23 15:21:22;;;;;;;3.92;1.80;;;;;;;;;;4985921;28;20090;-78
2022/09/23 15:23:53;;;;;;;5.22;1.90;;;;;;;;;;4987469;28;20031;-78
2022/09/23 15:26:48;;;;;;;5.00;1.70;;;;;;;;;;4986385;28;20031;-76
2022/09/23 15:29:13;;;;;;;4.13;1.65;;;;;;;;;;4986120;28;20026;-78